Peekskill, New York
Current Conditions -  °F | °C
As of 10:45 AM on Sunday 23 Nov 2014 (Local Time) from KSWF Reporting Station
Broken Clouds Broken Clouds  
Wind Chill: 44°   Ceiling: 8000
Heat Index: 48°   Visibility: 20mi
Dew Point: 25°   Wind: 9mph
Humidity: 40%   Direction: 230°SW
Pressure: 30.17"   Gusts: NA
Location:  41.29°N, 73.92°W
Report Text: KSWF 231545Z 23008KT 20SM BKN080 09/M04 A3017
Loading
Personal Weather Stations






























Interactive Weather Map New forecast layout! Learn more

10-Day Weather Forecast

Advertisements
Track Severe Weather on mobile